Terminal Aerodrome Forecast
Issued by NWS

Current Version | Previous Version | Text Only | Print | Product List | Glossary On
Versions: 1 2 3 4 5 6 7 8 9 10 11 12 13 14 15 16 17 18 19 20
000
FTUS42 KGSP 221100
TAFGMU
TAF
KGMU 221130Z 2212/2312 05005KT 6SM -SHRA BR BKN006 BKN015 OVC020
      TEMPO 2212/2215 3SM -SHRA BR SCT006 OVC015
     FM221500 05005KT P6SM -SHRA OVC020
     FM221800 07004KT P6SM BKN040 PROB30 2221/2224 4SM TSRA BKN030CB
     FM230900 33003KT 5SM BR BKN045=

USA.gov is the U.S. government's official web portal to all federal, state and local government web resources and services.